createdAt,value
2018-09-05T00:02:23.764Z,3.70
2018-09-05T00:04:52.553Z,3.53
2018-09-05T00:07:21.384Z,3.73
2018-09-05T00:09:50.066Z,3.70
2018-09-05T00:12:19.420Z,5.13
2018-09-05T00:14:48.366Z,4.57
2018-09-05T00:17:17.335Z,3.80
2018-09-05T00:19:46.232Z,4.30
2018-09-05T00:22:15.142Z,4.43
2018-09-05T00:24:44.228Z,4.20
2018-09-05T00:27:13.568Z,3.70
2018-09-05T00:29:42.492Z,3.70
2018-09-05T00:32:11.532Z,3.60
2018-09-05T00:34:40.491Z,3.97
2018-09-05T00:37:09.646Z,4.67
2018-09-05T00:39:38.357Z,3.77
2018-09-05T00:42:07.117Z,3.90
2018-09-05T00:44:35.996Z,3.70
2018-09-05T00:47:04.858Z,3.83
2018-09-05T00:49:33.835Z,4.03
2018-09-05T00:52:03.308Z,3.70
2018-09-05T00:54:32.045Z,4.27
2018-09-05T00:57:00.950Z,4.50
2018-09-05T00:59:29.842Z,3.73
2018-09-05T01:01:58.784Z,4.07
2018-09-05T01:04:27.576Z,3.90
2018-09-05T01:06:56.304Z,4.13
2018-09-05T01:09:25.342Z,4.37
2018-09-05T01:11:54.236Z,3.73
2018-09-05T01:14:23.127Z,4.07
2018-09-05T01:16:51.914Z,4.17
2018-09-05T01:19:20.885Z,5.33
2018-09-05T01:21:49.567Z,4.20
2018-09-05T01:24:18.608Z,4.20
2018-09-05T01:26:47.434Z,4.10
2018-09-05T01:29:16.287Z,4.00
2018-09-05T01:31:44.963Z,4.30
2018-09-05T01:34:13.776Z,4.03
2018-09-05T01:36:42.706Z,4.90
2018-09-05T01:39:11.379Z,4.40
2018-09-05T01:41:40.171Z,3.90
2018-09-05T01:44:09.369Z,3.97
2018-09-05T01:46:38.712Z,4.13
2018-09-05T01:49:07.710Z,3.90
2018-09-05T01:51:36.500Z,4.77
2018-09-05T01:54:05.186Z,4.10
2018-09-05T01:56:34.080Z,4.10
2018-09-05T01:59:02.822Z,4.40
2018-09-05T02:01:31.742Z,3.87
2018-09-05T02:04:00.716Z,5.53
2018-09-05T02:06:30.299Z,3.60
2018-09-05T02:08:59.241Z,3.83
2018-09-05T02:11:28.149Z,4.03
2018-09-05T02:13:56.933Z,4.07
2018-09-05T02:16:25.702Z,3.90
2018-09-05T02:18:54.468Z,4.10
2018-09-05T02:21:23.925Z,3.87
2018-09-05T02:23:52.868Z,4.20
2018-09-05T02:26:21.683Z,3.83
2018-09-05T02:28:50.327Z,4.17
2018-09-05T02:31:19.267Z,4.20
2018-09-05T02:33:48.154Z,4.40
2018-09-05T02:36:17.192Z,4.97
2018-09-05T02:38:46.657Z,4.40
2018-09-05T02:41:15.483Z,4.33
2018-09-05T02:43:49.526Z,4.60
2018-09-05T02:46:18.391Z,4.00
2018-09-05T02:48:47.156Z,4.60
2018-09-05T02:51:16.130Z,4.40
2018-09-05T02:53:44.862Z,4.20
2018-09-05T02:56:13.794Z,4.23
2018-09-05T02:58:42.728Z,4.50
2018-09-05T03:01:11.447Z,7.03
2018-09-05T03:03:40.150Z,4.70
2018-09-05T03:06:09.372Z,4.10
2018-09-05T03:08:38.168Z,4.93
2018-09-05T03:11:07.064Z,5.47
2018-09-05T03:13:35.787Z,5.03
2018-09-05T03:16:05.168Z,4.87
2018-09-05T03:18:34.023Z,6.63
2018-09-05T03:21:02.667Z,5.00
2018-09-05T03:23:31.506Z,4.93
2018-09-05T03:26:00.219Z,4.60
2018-09-05T03:28:29.088Z,5.13
2018-09-05T03:30:58.221Z,5.73
2018-09-05T03:33:27.087Z,5.80
2018-09-05T03:35:55.908Z,5.20
2018-09-05T03:38:24.828Z,4.93
2018-09-05T03:40:53.695Z,6.67
2018-09-05T03:43:22.626Z,4.80
2018-09-05T03:45:51.328Z,5.13
2018-09-05T03:48:20.116Z,8.30
2018-09-05T03:50:53.594Z,4.63
2018-09-05T03:53:22.378Z,5.73
2018-09-05T03:55:51.189Z,5.37
2018-09-05T03:58:20.835Z,5.37
2018-09-05T04:00:49.485Z,5.83
2018-09-05T04:03:18.219Z,5.90
2018-09-05T04:05:46.962Z,7.33
2018-09-05T04:08:15.767Z,5.87
2018-09-05T04:10:44.466Z,6.80
2018-09-05T04:13:13.319Z,6.43
2018-09-05T04:15:42.006Z,5.13
2018-09-05T04:18:10.830Z,5.10
2018-09-05T04:20:39.604Z,5.07
2018-09-05T04:23:08.341Z,6.93
2018-09-05T04:25:37.159Z,5.10
2018-09-05T04:28:05.964Z,5.57
2018-09-05T04:30:34.910Z,5.13
2018-09-05T04:33:03.644Z,5.67
2018-09-05T04:35:32.310Z,6.07
2018-09-05T04:38:00.952Z,5.50
2018-09-05T04:40:29.721Z,6.07
2018-09-05T04:42:58.347Z,5.87
2018-09-05T04:45:27.111Z,6.33
2018-09-05T04:47:55.915Z,6.77
2018-09-05T04:50:24.692Z,5.20
2018-09-05T04:52:53.321Z,6.03
2018-09-05T04:55:22.026Z,5.87
2018-09-05T04:57:50.678Z,6.50
2018-09-05T05:00:19.363Z,5.90
2018-09-05T05:02:48.168Z,5.93
2018-09-05T05:05:16.825Z,6.43
2018-09-05T05:07:45.630Z,5.60
2018-09-05T05:10:14.478Z,5.80
2018-09-05T05:12:43.269Z,7.37
2018-09-05T05:15:11.983Z,6.80
2018-09-05T05:17:40.687Z,5.70
2018-09-05T05:20:09.395Z,6.33
2018-09-05T05:22:38.172Z,6.37
2018-09-05T05:25:07.077Z,8.10
2018-09-05T05:27:35.797Z,6.07
2018-09-05T05:30:06.135Z,6.60
2018-09-05T05:32:35.126Z,7.63
2018-09-05T05:35:03.958Z,6.23
2018-09-05T05:37:32.680Z,6.10
2018-09-05T05:40:06.037Z,7.67
2018-09-05T05:42:35.641Z,10.23
2018-09-05T05:45:04.787Z,7.73
2018-09-05T05:47:34.469Z,7.20
2018-09-05T05:50:04.050Z,6.43
2018-09-05T05:52:33.497Z,8.80
2018-09-05T05:55:03.180Z,7.27
2018-09-05T05:57:31.942Z,6.97
2018-09-05T06:00:00.956Z,6.12
2018-09-05T06:02:29.774Z,6.90
2018-09-05T06:04:58.684Z,7.00
2018-09-05T06:07:27.533Z,8.68
2018-09-05T06:09:56.302Z,7.08
2018-09-05T06:12:25.109Z,7.75
2018-09-05T06:14:54.429Z,7.50
2018-09-05T06:17:23.189Z,7.83
2018-09-05T06:19:52.510Z,7.20
2018-09-05T06:22:21.331Z,7.03
2018-09-05T06:24:50.355Z,8.70
2018-09-05T06:27:19.890Z,7.62
2018-09-05T06:29:48.675Z,7.58
2018-09-05T06:32:17.575Z,7.50
2018-09-05T06:34:46.452Z,7.80
2018-09-05T06:37:15.089Z,8.18
2018-09-05T06:39:44.083Z,8.00
2018-09-05T06:42:12.768Z,8.38
2018-09-05T06:44:41.514Z,10.32
2018-09-05T06:47:10.908Z,8.38
2018-09-05T06:49:40.346Z,8.60
2018-09-05T06:52:09.157Z,8.48
2018-09-05T06:54:38.035Z,9.53
2018-09-05T06:57:06.931Z,9.08
2018-09-05T06:59:35.717Z,9.78
2018-09-05T07:02:04.533Z,9.10
2018-09-05T07:04:33.404Z,10.40
2018-09-05T07:07:02.219Z,11.05
2018-09-05T07:09:30.927Z,9.88
2018-09-05T07:11:59.747Z,9.93
2018-09-05T07:14:28.747Z,9.55
2018-09-05T07:16:57.522Z,9.43
2018-09-05T07:19:26.351Z,9.85
2018-09-05T07:21:55.219Z,9.95
2018-09-05T07:24:23.898Z,9.35
2018-09-05T07:26:52.717Z,13.48
2018-09-05T07:29:21.547Z,11.05
2018-09-05T07:31:50.285Z,10.95
2018-09-05T07:34:19.082Z,11.00
2018-09-05T07:36:48.092Z,11.63
2018-09-05T07:39:16.964Z,11.22
2018-09-05T07:41:45.699Z,11.03
2018-09-05T07:44:14.580Z,11.12
2018-09-05T07:46:43.408Z,11.73
2018-09-05T07:49:12.636Z,11.70
2018-09-05T07:51:41.557Z,9.95
2018-09-05T07:54:10.399Z,11.70
2018-09-05T07:56:39.232Z,10.78
2018-09-05T07:59:07.999Z,13.72
2018-09-05T08:01:36.661Z,10.60
2018-09-05T08:04:06.498Z,10.50
2018-09-05T08:06:35.244Z,11.43
2018-09-05T08:09:06.023Z,10.70
2018-09-05T08:11:34.856Z,14.15
2018-09-05T08:14:03.544Z,9.38
2018-09-05T08:16:32.518Z,8.75
2018-09-05T08:19:01.200Z,9.28
2018-09-05T08:21:29.908Z,9.58
2018-09-05T08:23:58.729Z,10.60
2018-09-05T08:26:27.467Z,8.93
2018-09-05T08:28:56.426Z,9.10
2018-09-05T08:31:25.084Z,9.75
2018-09-05T08:33:53.708Z,9.65
2018-09-05T08:36:22.721Z,9.38
2018-09-05T08:38:51.132Z,9.63
2018-09-05T08:41:19.830Z,9.58
2018-09-05T08:43:48.543Z,8.98
2018-09-05T08:46:17.279Z,9.85
2018-09-05T08:48:45.945Z,10.45
2018-09-05T08:51:14.836Z,10.13
2018-09-05T08:53:43.675Z,10.08
2018-09-05T08:56:12.669Z,9.45
2018-09-05T08:58:41.409Z,9.83
2018-09-05T09:01:10.072Z,9.98
2018-09-05T09:03:38.783Z,9.73
2018-09-05T09:06:07.698Z,10.95
2018-09-05T09:08:36.567Z,9.75
2018-09-05T09:11:05.455Z,12.07
2018-09-05T09:13:34.143Z,11.63
2018-09-05T09:16:02.986Z,11.22
2018-09-05T09:18:31.905Z,10.08
2018-09-05T09:21:00.598Z,10.53
2018-09-05T09:23:29.255Z,10.18
2018-09-05T09:25:57.982Z,10.18
2018-09-05T09:28:26.940Z,9.85
2018-09-05T09:30:55.867Z,10.15
2018-09-05T09:33:24.661Z,9.75
2018-09-05T09:35:53.342Z,9.75
2018-09-05T09:38:22.431Z,9.93
2018-09-05T09:40:51.135Z,10.00
2018-09-05T09:43:19.914Z,8.30
2018-09-05T09:45:48.678Z,9.45
2018-09-05T09:48:17.479Z,10.55
2018-09-05T09:50:46.129Z,9.70
2018-09-05T09:53:14.970Z,9.50
2018-09-05T09:55:43.653Z,8.78
2018-09-05T09:58:12.299Z,10.08
2018-09-05T10:00:46.307Z,9.60
2018-09-05T10:03:20.278Z,9.58
2018-09-05T10:05:54.321Z,10.18
2018-09-05T10:08:28.213Z,9.20
2018-09-05T10:11:07.000Z,9.88
2018-09-05T10:13:40.726Z,11.00
2018-09-05T10:16:14.706Z,10.70
2018-09-05T10:18:45.622Z,11.08
2018-09-05T10:21:14.314Z,11.73
2018-09-05T10:23:43.231Z,12.35
2018-09-05T10:26:12.129Z,11.10
2018-09-05T10:28:40.772Z,16.73
2018-09-05T10:31:09.521Z,13.58
2018-09-05T10:33:38.386Z,12.60
2018-09-05T10:36:07.309Z,10.95
2018-09-05T10:38:36.039Z,10.53
2018-09-05T10:41:04.757Z,11.45
2018-09-05T10:43:33.407Z,11.60
2018-09-05T10:46:02.060Z,12.37
2018-09-05T10:48:30.821Z,13.75
2018-09-05T10:51:00.155Z,11.53
2018-09-05T10:53:29.045Z,11.68
2018-09-05T10:55:57.891Z,12.63
2018-09-05T10:58:26.775Z,11.60
2018-09-05T11:00:55.578Z,11.10
2018-09-05T11:03:24.459Z,10.03
2018-09-05T11:05:53.184Z,9.78
2018-09-05T11:08:21.930Z,11.03
2018-09-05T11:10:50.820Z,10.70
2018-09-05T11:13:19.650Z,10.72
2018-09-05T11:15:48.538Z,9.50
2018-09-05T11:18:18.003Z,8.85
2018-09-05T11:20:46.771Z,9.05
2018-09-05T11:23:15.696Z,10.00
2018-09-05T11:25:45.201Z,8.75
2018-09-05T11:28:14.100Z,9.60
2018-09-05T11:30:42.967Z,9.53
2018-09-05T11:33:11.814Z,8.68
2018-09-05T11:35:40.449Z,8.20
2018-09-05T11:38:09.143Z,7.97
2018-09-05T11:40:38.108Z,8.85
2018-09-05T11:43:06.854Z,9.05
2018-09-05T11:45:35.815Z,10.40
2018-09-05T11:48:04.554Z,9.13
2018-09-05T11:50:33.181Z,9.23
2018-09-05T11:53:01.906Z,9.45
2018-09-05T11:55:30.807Z,10.28
2018-09-05T11:57:59.743Z,9.63
2018-09-05T12:00:28.437Z,9.40
2018-09-05T12:02:57.246Z,9.35
2018-09-05T12:05:26.125Z,9.20
2018-09-05T12:07:54.783Z,9.53
2018-09-05T12:10:23.596Z,9.85
2018-09-05T12:12:52.433Z,8.55
2018-09-05T12:15:21.176Z,9.40
2018-09-05T12:17:50.153Z,9.08
2018-09-05T12:20:57.253Z,9.05
2018-09-05T12:23:26.131Z,9.58
2018-09-05T12:25:54.867Z,9.33
2018-09-05T12:28:23.872Z,8.80
2018-09-05T12:30:52.695Z,13.35
2018-09-05T12:33:21.338Z,8.93
2018-09-05T12:35:50.051Z,9.55
2018-09-05T12:38:18.787Z,9.30
2018-09-05T12:40:47.446Z,8.50
2018-09-05T12:43:16.170Z,8.65
2018-09-05T12:45:44.790Z,8.60
2018-09-05T12:48:13.461Z,8.50
2018-09-05T12:50:42.114Z,8.85
2018-09-05T12:53:10.819Z,9.23
2018-09-05T12:55:39.479Z,9.30
2018-09-05T12:58:08.256Z,9.18
2018-09-05T13:00:37.155Z,8.08
2018-09-05T13:03:05.878Z,7.97
2018-09-05T13:05:34.550Z,7.97
2018-09-05T13:08:03.220Z,9.75
2018-09-05T13:10:32.039Z,8.85
2018-09-05T13:13:00.716Z,8.43
2018-09-05T13:15:29.572Z,7.83
2018-09-05T13:17:58.198Z,7.72
2018-09-05T13:20:26.815Z,8.15
2018-09-05T13:22:55.532Z,8.60
2018-09-05T13:25:24.232Z,9.73
2018-09-05T13:27:52.894Z,6.83
2018-09-05T13:30:21.593Z,7.92
2018-09-05T13:32:50.257Z,10.50
2018-09-05T13:35:19.000Z,10.05
2018-09-05T13:37:47.630Z,8.63
2018-09-05T13:40:16.375Z,8.98
2018-09-05T13:42:45.223Z,9.00
2018-09-05T13:45:14.767Z,9.38
2018-09-05T13:47:43.726Z,8.25
2018-09-05T13:50:12.533Z,9.30
2018-09-05T13:52:41.362Z,8.98
2018-09-05T13:55:10.171Z,10.30
2018-09-05T13:57:39.086Z,9.40
2018-09-05T14:00:14.018Z,9.23
2018-09-05T14:02:42.928Z,9.90
2018-09-05T14:05:11.787Z,9.60
2018-09-05T14:07:40.803Z,11.00
2018-09-05T14:10:09.571Z,9.97
2018-09-05T14:12:38.397Z,10.87
2018-09-05T14:15:07.392Z,11.23
2018-09-05T14:17:36.398Z,12.00
2018-09-05T14:20:05.657Z,12.20
2018-09-05T14:22:34.473Z,12.43
2018-09-05T14:25:03.457Z,12.17
2018-09-05T14:27:33.221Z,11.87
2018-09-05T14:30:02.036Z,11.40
2018-09-05T14:32:30.829Z,11.53
2018-09-05T14:34:59.550Z,12.53
2018-09-05T14:37:28.519Z,12.83
2018-09-05T14:39:57.326Z,12.10
2018-09-05T14:42:26.666Z,12.83
2018-09-05T14:44:55.409Z,12.67
2018-09-05T14:47:24.876Z,13.00
2018-09-05T14:49:53.651Z,13.17
2018-09-05T14:52:22.415Z,13.70
2018-09-05T14:54:51.096Z,13.77
2018-09-05T14:57:20.062Z,14.27
2018-09-05T14:59:48.838Z,13.53
2018-09-05T15:02:17.917Z,14.47
2018-09-05T15:04:46.663Z,14.37
2018-09-05T15:07:15.333Z,15.47
2018-09-05T15:09:44.075Z,15.00
2018-09-05T15:12:12.807Z,12.77
2018-09-05T15:14:41.558Z,14.10
2018-09-05T15:17:10.293Z,15.40
2018-09-05T15:19:38.941Z,13.73
2018-09-05T15:22:07.683Z,12.70
2018-09-05T15:24:36.441Z,12.07
2018-09-05T15:27:05.379Z,11.73
2018-09-05T15:29:34.128Z,11.83
2018-09-05T15:32:02.875Z,13.07
2018-09-05T15:34:31.667Z,13.10
2018-09-05T15:37:00.467Z,15.60
2018-09-05T15:39:29.279Z,14.43
2018-09-05T15:41:58.009Z,16.10
2018-09-05T15:44:26.739Z,13.40
2018-09-05T15:46:55.566Z,13.57
2018-09-05T15:49:24.213Z,13.00
2018-09-05T15:51:55.101Z,12.83
2018-09-05T15:54:24.680Z,14.13
2018-09-05T15:56:53.979Z,13.07
2018-09-05T15:59:23.431Z,13.60
2018-09-05T16:01:52.991Z,14.70
2018-09-05T16:04:21.701Z,14.70
2018-09-05T16:06:50.447Z,13.17
2018-09-05T16:09:19.238Z,13.73
2018-09-05T16:11:47.957Z,13.90
2018-09-05T16:14:17.890Z,13.50
2018-09-05T16:16:46.643Z,12.77
2018-09-05T16:19:15.322Z,14.10
2018-09-05T16:21:44.049Z,14.27
2018-09-05T16:24:12.771Z,13.47
2018-09-05T16:26:41.475Z,13.67
2018-09-05T16:29:10.162Z,12.57
2018-09-05T16:31:38.864Z,13.10
2018-09-05T16:34:07.817Z,13.50
2018-09-05T16:36:36.559Z,13.77
2018-09-05T16:39:07.699Z,13.03
2018-09-05T16:41:36.698Z,12.73
2018-09-05T16:44:05.546Z,15.03
2018-09-05T16:46:34.273Z,13.03
2018-09-05T16:49:03.850Z,17.00
2018-09-05T16:51:32.541Z,13.60
2018-09-05T16:54:01.528Z,14.27
2018-09-05T16:56:30.367Z,14.67
2018-09-05T16:59:00.007Z,14.23
2018-09-05T17:01:28.715Z,14.70
2018-09-05T17:03:57.395Z,14.73
2018-09-05T17:06:26.164Z,14.80
2018-09-05T17:08:55.056Z,14.57
2018-09-05T17:11:23.910Z,14.47
2018-09-05T17:13:52.632Z,15.23
2018-09-05T17:16:21.424Z,15.80
2018-09-05T17:18:50.108Z,15.60
2018-09-05T17:21:18.787Z,14.17
2018-09-05T17:23:47.447Z,13.70
2018-09-05T17:26:16.138Z,15.17
2018-09-05T17:28:44.885Z,14.57
2018-09-05T17:31:14.091Z,13.73
2018-09-05T17:33:42.814Z,13.53
2018-09-05T17:36:11.606Z,14.63
2018-09-05T17:38:40.369Z,14.13
2018-09-05T17:41:09.150Z,14.60
2018-09-05T17:43:38.018Z,14.07
2018-09-05T17:46:06.834Z,13.63
2018-09-05T17:48:35.697Z,13.87
2018-09-05T17:51:05.151Z,13.03
2018-09-05T17:53:35.530Z,14.43
2018-09-05T17:56:04.434Z,14.00
2018-09-05T17:58:33.200Z,14.47
2018-09-05T18:01:04.069Z,18.90
2018-09-05T18:03:32.990Z,14.73
2018-09-05T18:06:01.904Z,15.27
2018-09-05T18:08:30.729Z,15.53
2018-09-05T18:10:59.580Z,14.27
2018-09-05T18:13:29.191Z,14.70
2018-09-05T18:15:58.647Z,13.87
2018-09-05T18:18:27.638Z,12.83
2018-09-05T18:20:56.580Z,11.03
2018-09-05T18:23:26.042Z,11.17
2018-09-05T18:25:54.866Z,10.37
2018-09-05T18:28:23.652Z,11.03
2018-09-05T18:30:52.728Z,11.37
2018-09-05T18:33:22.187Z,11.03
2018-09-05T18:35:51.250Z,10.47
2018-09-05T18:38:21.406Z,10.27
2018-09-05T18:40:50.264Z,10.53
2018-09-05T18:43:19.834Z,9.13
2018-09-05T18:45:48.710Z,17.53
2018-09-05T18:48:17.579Z,19.80
2018-09-05T18:50:46.800Z,11.27
2018-09-05T18:53:15.544Z,11.57
2018-09-05T18:55:45.528Z,11.20
2018-09-05T18:58:14.401Z,10.83
2018-09-05T19:00:43.391Z,13.27
2018-09-05T19:03:12.879Z,10.87
2018-09-05T19:05:41.774Z,12.27
2018-09-05T19:08:11.297Z,14.30
2018-09-05T19:10:40.802Z,14.10
2018-09-05T19:13:10.329Z,13.90
2018-09-05T19:15:39.187Z,12.67
2018-09-05T19:18:08.926Z,12.60
2018-09-05T19:20:37.932Z,14.27
2018-09-05T19:23:06.881Z,12.90
2018-09-05T19:25:35.921Z,14.90
2018-09-05T19:28:04.667Z,13.57
2018-09-05T19:30:33.490Z,13.97
2018-09-05T19:33:02.428Z,13.83
2018-09-05T19:35:31.851Z,14.10
2018-09-05T19:38:01.471Z,15.30
2018-09-05T19:40:39.028Z,14.70
2018-09-05T19:43:08.039Z,15.07
2018-09-05T19:45:36.839Z,15.97
2018-09-05T19:48:05.719Z,14.00
2018-09-05T19:50:34.590Z,14.03
2018-09-05T19:53:03.862Z,14.80
2018-09-05T19:55:32.608Z,16.07
2018-09-05T19:58:01.564Z,15.30
2018-09-05T20:00:30.376Z,14.20
2018-09-05T20:02:59.298Z,14.27
2018-09-05T20:05:28.083Z,14.43
2018-09-05T20:07:57.753Z,15.77
2018-09-05T20:10:26.704Z,14.43
2018-09-05T20:12:55.650Z,15.40
2018-09-05T20:15:24.718Z,14.10
2018-09-05T20:17:53.718Z,14.13
2018-09-05T20:20:22.721Z,14.70
2018-09-05T20:22:51.541Z,14.90
2018-09-05T20:25:20.441Z,16.60
2018-09-05T20:27:49.322Z,15.43
2018-09-05T20:30:18.203Z,14.50
2018-09-05T20:32:47.122Z,13.40
2018-09-05T20:35:16.139Z,14.43
2018-09-05T20:37:45.013Z,14.33
2018-09-05T20:40:14.105Z,19.80
2018-09-05T20:42:43.393Z,14.87
2018-09-05T20:45:12.175Z,15.10
2018-09-05T20:47:40.925Z,15.27
2018-09-05T20:50:09.689Z,14.33
2018-09-05T20:52:38.633Z,14.60
2018-09-05T20:55:07.664Z,14.23
2018-09-05T20:57:36.397Z,17.27
2018-09-05T21:00:07.890Z,14.60
2018-09-05T21:02:36.793Z,15.27
2018-09-05T21:05:05.762Z,14.63
2018-09-05T21:07:34.648Z,14.03
2018-09-05T21:10:03.703Z,15.33
2018-09-05T21:12:32.421Z,13.83
2018-09-05T21:15:01.369Z,15.10
2018-09-05T21:17:30.221Z,14.37
2018-09-05T21:19:59.060Z,13.83
2018-09-05T21:22:27.943Z,14.63
2018-09-05T21:24:56.734Z,15.90
2018-09-05T21:27:25.446Z,14.63
2018-09-05T21:29:55.473Z,13.70
2018-09-05T21:32:24.262Z,13.23
2018-09-05T21:34:52.975Z,13.57
2018-09-05T21:37:23.261Z,14.50
2018-09-05T21:39:52.075Z,13.77
2018-09-05T21:42:20.897Z,13.53
2018-09-05T21:44:49.792Z,13.03
2018-09-05T21:47:18.594Z,13.20
2018-09-05T21:49:47.279Z,12.80
2018-09-05T21:52:16.150Z,13.43
2018-09-05T21:54:44.961Z,13.83
2018-09-05T21:57:13.691Z,13.53
2018-09-05T21:59:42.491Z,13.23
2018-09-05T22:02:11.886Z,12.73
2018-09-05T22:04:40.831Z,12.07
2018-09-05T22:07:09.743Z,13.47
2018-09-05T22:09:38.534Z,13.00
2018-09-05T22:12:07.411Z,12.30
2018-09-05T22:14:36.215Z,12.43
2018-09-05T22:17:05.699Z,12.13
2018-09-05T22:19:34.541Z,13.40
2018-09-05T22:22:03.449Z,12.47
2018-09-05T22:24:32.334Z,12.20
2018-09-05T22:27:01.104Z,11.90
2018-09-05T22:29:30.479Z,12.20
2018-09-05T22:31:59.370Z,11.60
2018-09-05T22:34:28.235Z,11.77
2018-09-05T22:36:56.992Z,11.80
2018-09-05T22:39:25.800Z,12.10
2018-09-05T22:41:54.607Z,11.67
2018-09-05T22:44:34.489Z,12.70
2018-09-05T22:47:14.480Z,12.40
2018-09-05T22:50:59.761Z,11.77
2018-09-05T22:56:56.500Z,11.20
2018-09-05T23:00:35.897Z,11.73
2018-09-05T23:03:15.752Z,11.20
2018-09-05T23:05:55.809Z,11.47
2018-09-05T23:08:34.103Z,10.63
2018-09-05T23:11:14.162Z,12.00
2018-09-05T23:13:58.220Z,11.73
2018-09-05T23:16:38.203Z,11.03
2018-09-05T23:19:33.162Z,12.03
2018-09-05T23:22:01.948Z,11.40
2018-09-05T23:24:30.741Z,12.20
2018-09-05T23:26:59.471Z,11.53
2018-09-05T23:29:28.210Z,11.80
2018-09-05T23:32:00.829Z,12.10
2018-09-05T23:34:29.765Z,12.73
2018-09-05T23:36:58.480Z,14.20
2018-09-05T23:39:27.169Z,14.23
2018-09-05T23:41:55.831Z,14.13
2018-09-05T23:44:24.740Z,14.63
2018-09-05T23:46:53.629Z,14.47
2018-09-05T23:49:22.414Z,15.90
2018-09-05T23:51:51.247Z,14.07
2018-09-05T23:54:19.863Z,15.13
2018-09-05T23:56:48.748Z,14.97
2018-09-05T23:59:17.580Z,17.07
